createdAt,value
2018-03-12T00:00:36.521Z,9.22
2018-03-12T00:01:36.473Z,9.18
2018-03-12T00:02:36.440Z,9.22
2018-03-12T00:03:36.407Z,9.18
2018-03-12T00:04:36.376Z,9.11
2018-03-12T00:05:36.322Z,9.14
2018-03-12T00:06:36.336Z,9.11
2018-03-12T00:07:36.251Z,9.11
2018-03-12T00:08:37.131Z,8.95
2018-03-12T00:09:36.214Z,8.95
2018-03-12T00:10:36.159Z,9.02
2018-03-12T00:11:36.122Z,8.95
2018-03-12T00:12:36.116Z,8.85
2018-03-12T00:13:36.059Z,8.79
2018-03-12T00:14:36.018Z,8.79
2018-03-12T00:15:35.951Z,8.66
2018-03-12T00:16:35.915Z,8.76
2018-03-12T00:17:35.872Z,8.74
2018-03-12T00:18:35.836Z,8.79
2018-03-12T00:19:35.801Z,8.55
2018-03-12T00:20:35.757Z,8.55
2018-03-12T00:21:35.725Z,8.61
2018-03-12T00:22:35.717Z,8.61
2018-03-12T00:23:35.652Z,8.52
2018-03-12T00:24:35.618Z,8.45
2018-03-12T00:25:35.616Z,8.37
2018-03-12T00:26:35.532Z,8.38
2018-03-12T00:27:35.537Z,8.37
2018-03-12T00:28:35.478Z,8.45
2018-03-12T00:29:35.429Z,8.38
2018-03-12T00:30:35.435Z,8.31
2018-03-12T00:31:35.344Z,8.30
2018-03-12T00:32:35.308Z,8.30
2018-03-12T00:33:35.272Z,8.30
2018-03-12T00:34:35.234Z,8.18
2018-03-12T00:35:35.236Z,8.18
2018-03-12T00:36:35.173Z,8.16
2018-03-12T00:37:35.128Z,8.19
2018-03-12T00:38:35.083Z,8.18
2018-03-12T00:39:35.092Z,8.16
2018-03-12T00:40:35.008Z,8.10
2018-03-12T00:41:34.973Z,8.10
2018-03-12T00:42:34.922Z,8.13
2018-03-12T00:43:34.938Z,8.15
2018-03-12T00:44:34.844Z,8.10
2018-03-12T00:45:34.816Z,8.03
2018-03-12T00:46:34.790Z,8.05
2018-03-12T00:47:34.741Z,8.01
2018-03-12T00:48:34.716Z,7.88
2018-03-12T00:49:34.675Z,7.94
2018-03-12T00:50:34.624Z,7.85
2018-03-12T00:51:34.617Z,7.94
2018-03-12T00:52:34.549Z,8.03
2018-03-12T00:53:34.510Z,7.85
2018-03-12T00:54:34.468Z,7.93
2018-03-12T00:55:34.458Z,7.91
2018-03-12T00:56:34.428Z,7.90
2018-03-12T00:57:34.390Z,7.80
2018-03-12T00:58:34.321Z,7.77
2018-03-12T00:59:34.292Z,7.60
2018-03-12T01:00:34.235Z,7.45
2018-03-12T01:01:34.247Z,7.56
2018-03-12T01:02:34.176Z,7.58
2018-03-12T01:03:34.135Z,7.50
2018-03-12T01:04:34.084Z,7.50
2018-03-12T01:05:34.065Z,7.40
2018-03-12T01:06:34.017Z,7.47
2018-03-12T01:07:33.982Z,7.42
2018-03-12T01:08:33.933Z,7.51
2018-03-12T01:09:33.941Z,7.51
2018-03-12T01:10:33.875Z,7.43
2018-03-12T01:11:33.860Z,7.48
2018-03-12T01:12:33.786Z,7.54
2018-03-12T01:13:33.742Z,7.58
2018-03-12T01:14:33.699Z,7.58
2018-03-12T01:15:33.704Z,7.67
2018-03-12T01:16:33.627Z,7.63
2018-03-12T01:17:33.612Z,7.77
2018-03-12T01:18:33.608Z,7.77
2018-03-12T01:19:33.527Z,7.85
2018-03-12T01:20:33.472Z,7.79
2018-03-12T01:21:33.454Z,7.75
2018-03-12T01:22:33.406Z,7.88
2018-03-12T01:23:33.359Z,7.80
2018-03-12T01:24:33.355Z,7.80
2018-03-12T01:25:33.282Z,7.90
2018-03-12T01:26:33.263Z,7.94
2018-03-12T01:27:33.211Z,7.94
2018-03-12T01:28:33.186Z,7.94
2018-03-12T01:29:33.143Z,7.94
2018-03-12T01:30:33.086Z,8.01
2018-03-12T01:31:33.061Z,8.08
2018-03-12T01:32:33.011Z,8.01
2018-03-12T01:33:32.983Z,8.01
2018-03-12T01:34:32.966Z,8.13
2018-03-12T01:35:32.919Z,8.23
2018-03-12T01:36:32.858Z,8.30
2018-03-12T01:37:32.865Z,8.34
2018-03-12T01:38:32.790Z,8.31
2018-03-12T01:39:32.745Z,8.41
2018-03-12T01:40:32.701Z,8.55
2018-03-12T01:41:32.661Z,8.55
2018-03-12T01:42:32.626Z,8.53
2018-03-12T01:43:32.628Z,8.67
2018-03-12T01:44:32.547Z,8.69
2018-03-12T01:45:32.592Z,8.81
2018-03-12T01:46:32.491Z,8.69
2018-03-12T01:47:32.434Z,8.76
2018-03-12T01:48:32.439Z,8.84
2018-03-12T01:49:32.365Z,8.76
2018-03-12T01:50:32.332Z,8.84
2018-03-12T01:51:32.293Z,8.81
2018-03-12T01:52:32.273Z,8.88
2018-03-12T01:53:32.206Z,8.79
2018-03-12T01:54:32.181Z,8.81
2018-03-12T01:55:32.141Z,8.81
2018-03-12T01:56:32.111Z,8.64
2018-03-12T01:57:32.055Z,8.48
2018-03-12T01:58:32.060Z,8.52
2018-03-12T01:59:31.983Z,8.46
2018-03-12T02:00:31.976Z,8.31
2018-03-12T02:01:31.927Z,8.33
2018-03-12T02:02:31.870Z,8.36
2018-03-12T02:03:31.832Z,8.33
2018-03-12T02:04:31.794Z,8.27
2018-03-12T02:05:31.769Z,8.18
2018-03-12T02:06:31.715Z,8.28
2018-03-12T02:07:31.677Z,8.19
2018-03-12T02:08:31.658Z,8.19
2018-03-12T02:09:31.620Z,8.15
2018-03-12T02:10:31.567Z,8.18
2018-03-12T02:11:31.539Z,8.13
2018-03-12T02:12:31.509Z,8.12
2018-03-12T02:13:31.447Z,8.12
2018-03-12T02:14:31.425Z,8.08
2018-03-12T02:15:31.377Z,8.08
2018-03-12T02:16:31.349Z,8.09
2018-03-12T02:17:31.325Z,8.15
2018-03-12T02:18:31.262Z,8.15
2018-03-12T02:19:31.218Z,8.13
2018-03-12T02:20:31.201Z,8.23
2018-03-12T02:21:31.149Z,8.16
2018-03-12T02:22:31.108Z,8.20
2018-03-12T02:23:31.105Z,8.27
2018-03-12T02:24:31.046Z,8.36
2018-03-12T02:25:30.994Z,8.36
2018-03-12T02:26:30.983Z,8.41
2018-03-12T02:27:30.915Z,8.34
2018-03-12T02:28:30.904Z,8.26
2018-03-12T02:29:30.843Z,8.27
2018-03-12T02:30:30.817Z,8.37
2018-03-12T02:31:30.780Z,8.42
2018-03-12T02:32:30.723Z,8.33
2018-03-12T02:33:30.702Z,8.38
2018-03-12T02:34:30.659Z,8.31
2018-03-12T02:35:30.613Z,8.45
2018-03-12T02:36:30.626Z,8.49
2018-03-12T02:37:30.544Z,8.51
2018-03-12T02:38:30.502Z,8.51
2018-03-12T02:39:30.461Z,8.49
2018-03-12T02:40:30.433Z,8.44
2018-03-12T02:41:30.394Z,8.58
2018-03-12T02:42:30.338Z,8.58
2018-03-12T02:43:30.316Z,8.55
2018-03-12T02:44:30.272Z,8.63
2018-03-12T02:45:30.246Z,8.63
2018-03-12T02:46:30.197Z,8.67
2018-03-12T02:47:30.188Z,8.64
2018-03-12T02:48:30.153Z,8.66
2018-03-12T02:49:30.096Z,8.70
2018-03-12T02:50:30.083Z,8.67
2018-03-12T02:51:30.017Z,8.64
2018-03-12T02:52:29.992Z,8.56
2018-03-12T02:53:29.950Z,8.64
2018-03-12T02:54:29.889Z,8.63
2018-03-12T02:55:29.862Z,8.63
2018-03-12T02:56:29.837Z,8.67
2018-03-12T02:57:29.774Z,8.61
2018-03-12T02:58:29.739Z,8.64
2018-03-12T02:59:29.750Z,8.56
2018-03-12T03:00:29.661Z,8.58
2018-03-12T03:01:29.629Z,8.55
2018-03-12T03:02:29.604Z,8.56
2018-03-12T03:03:29.570Z,8.55
2018-03-12T03:04:29.548Z,8.58
2018-03-12T03:05:29.495Z,8.56
2018-03-12T03:06:29.429Z,8.52
2018-03-12T03:07:29.397Z,8.52
2018-03-12T03:08:29.358Z,8.55
2018-03-12T03:09:29.316Z,8.69
2018-03-12T03:10:29.277Z,8.58
2018-03-12T03:11:29.241Z,8.63
2018-03-12T03:12:29.237Z,8.70
2018-03-12T03:13:29.183Z,8.66
2018-03-12T03:14:31.095Z,8.70
2018-03-12T03:15:29.087Z,8.64
2018-03-12T03:16:29.596Z,8.60
2018-03-12T03:17:29.013Z,8.64
2018-03-12T03:18:29.008Z,8.63
2018-03-12T03:19:28.931Z,8.55
2018-03-12T03:20:28.899Z,8.61
2018-03-12T03:21:28.873Z,8.60
2018-03-12T03:22:28.818Z,8.60
2018-03-12T03:23:28.788Z,8.53
2018-03-12T03:24:28.745Z,8.55
2018-03-12T03:25:28.709Z,8.55
2018-03-12T03:26:28.735Z,8.51
2018-03-12T03:27:28.632Z,8.53
2018-03-12T03:28:28.632Z,8.53
2018-03-12T03:29:28.575Z,8.49
2018-03-12T03:30:28.524Z,8.49
2018-03-12T03:31:28.488Z,8.51
2018-03-12T03:32:28.445Z,8.51
2018-03-12T03:33:28.471Z,8.51
2018-03-12T03:34:28.396Z,8.51
2018-03-12T03:35:28.351Z,8.53
2018-03-12T03:36:28.310Z,8.52
2018-03-12T03:37:28.256Z,8.60
2018-03-12T03:38:28.215Z,8.63
2018-03-12T03:39:28.176Z,8.56
2018-03-12T03:40:28.138Z,8.52
2018-03-12T03:41:28.100Z,8.67
2018-03-12T03:42:28.080Z,8.66
2018-03-12T03:43:28.025Z,8.70
2018-03-12T03:44:28.031Z,8.70
2018-03-12T03:45:27.951Z,8.67
2018-03-12T03:46:27.937Z,8.70
2018-03-12T03:47:27.889Z,8.67
2018-03-12T03:48:27.836Z,8.73
2018-03-12T03:49:27.817Z,8.73
2018-03-12T03:50:27.762Z,8.74
2018-03-12T03:51:27.728Z,8.71
2018-03-12T03:52:27.689Z,8.73
2018-03-12T03:53:27.691Z,8.74
2018-03-12T03:54:27.607Z,8.78
2018-03-12T03:55:27.566Z,8.76
2018-03-12T03:56:27.541Z,8.78
2018-03-12T03:57:27.506Z,8.82
2018-03-12T03:58:27.460Z,8.82
2018-03-12T03:59:27.419Z,8.76
2018-03-12T04:00:27.386Z,8.76
2018-03-12T04:01:27.356Z,8.87
2018-03-12T04:02:27.320Z,8.84
2018-03-12T04:03:27.292Z,8.82
2018-03-12T04:04:27.254Z,8.76
2018-03-12T04:05:27.215Z,8.76
2018-03-12T04:06:27.157Z,8.79
2018-03-12T04:07:27.137Z,8.87
2018-03-12T04:08:27.109Z,8.88
2018-03-12T04:09:27.048Z,8.81
2018-03-12T04:10:27.011Z,8.74
2018-03-12T04:11:26.985Z,8.78
2018-03-12T04:12:26.930Z,8.76
2018-03-12T04:13:26.921Z,8.70
2018-03-12T04:14:26.854Z,8.82
2018-03-12T04:15:26.839Z,8.78
2018-03-12T04:16:26.784Z,8.69
2018-03-12T04:17:26.770Z,8.66
2018-03-12T04:18:26.715Z,8.69
2018-03-12T04:19:26.679Z,8.70
2018-03-12T04:20:26.671Z,8.81
2018-03-12T04:21:26.606Z,8.71
2018-03-12T04:22:26.600Z,8.76
2018-03-12T04:23:26.616Z,8.69
2018-03-12T04:24:26.492Z,8.67
2018-03-12T04:25:26.451Z,8.71
2018-03-12T04:26:26.405Z,8.55
2018-03-12T04:27:26.370Z,8.66
2018-03-12T04:28:26.351Z,8.61
2018-03-12T04:29:26.335Z,8.61
2018-03-12T04:30:26.255Z,8.64
2018-03-12T04:31:26.244Z,8.58
2018-03-12T04:32:26.254Z,8.56
2018-03-12T04:33:26.148Z,8.61
2018-03-12T04:34:26.137Z,8.55
2018-03-12T04:35:26.086Z,8.61
2018-03-12T04:36:26.039Z,8.66
2018-03-12T04:37:25.995Z,8.66
2018-03-12T04:38:25.961Z,8.67
2018-03-12T04:39:25.924Z,8.73
2018-03-12T04:40:25.983Z,8.69
2018-03-12T04:41:25.872Z,8.70
2018-03-12T04:42:25.808Z,8.70
2018-03-12T04:43:25.784Z,8.71
2018-03-12T04:44:25.736Z,8.74
2018-03-12T04:45:25.705Z,8.73
2018-03-12T04:46:25.676Z,8.67
2018-03-12T04:47:25.620Z,8.73
2018-03-12T04:48:25.588Z,8.74
2018-03-12T04:49:25.554Z,8.73
2018-03-12T04:50:25.520Z,8.70
2018-03-12T04:51:25.482Z,8.76
2018-03-12T04:52:25.434Z,8.69
2018-03-12T04:53:25.442Z,8.74
2018-03-12T04:54:25.370Z,8.67
2018-03-12T04:55:25.347Z,8.71
2018-03-12T04:56:25.309Z,8.73
2018-03-12T04:57:25.248Z,8.71
2018-03-12T04:58:25.212Z,8.69
2018-03-12T04:59:25.176Z,8.73
2018-03-12T05:00:25.139Z,8.71
2018-03-12T05:01:25.096Z,8.78
2018-03-12T05:02:25.060Z,8.73
2018-03-12T05:03:25.026Z,8.81
2018-03-12T05:04:25.221Z,8.71
2018-03-12T05:05:24.944Z,8.78
2018-03-12T05:06:24.912Z,8.79
2018-03-12T05:07:24.879Z,8.88
2018-03-12T05:08:24.837Z,8.84
2018-03-12T05:09:24.802Z,8.85
2018-03-12T05:10:24.761Z,8.81
2018-03-12T05:11:24.728Z,8.79
2018-03-12T05:12:24.688Z,8.85
2018-03-12T05:13:24.652Z,8.76
2018-03-12T05:14:24.613Z,8.76
2018-03-12T05:15:24.579Z,8.70
2018-03-12T05:16:24.541Z,8.84
2018-03-12T05:17:24.503Z,8.67
2018-03-12T05:18:24.466Z,8.73
2018-03-12T05:19:24.430Z,8.76
2018-03-12T05:20:24.410Z,8.69
2018-03-12T05:21:24.351Z,8.76
2018-03-12T05:22:24.315Z,8.74
2018-03-12T05:23:24.282Z,8.79
2018-03-12T05:24:24.239Z,8.79
2018-03-12T05:25:24.206Z,8.82
2018-03-12T05:26:24.166Z,8.84
2018-03-12T05:27:24.131Z,8.85
2018-03-12T05:28:24.090Z,8.87
2018-03-12T05:29:24.053Z,8.87
2018-03-12T05:30:24.022Z,8.89
2018-03-12T05:31:23.980Z,8.92
2018-03-12T05:32:23.939Z,8.99
2018-03-12T05:33:23.898Z,9.00
2018-03-12T05:34:23.867Z,9.03
2018-03-12T05:35:23.831Z,9.11
2018-03-12T05:36:23.789Z,9.10
2018-03-12T05:37:23.749Z,9.16
2018-03-12T05:38:23.716Z,9.16
2018-03-12T05:39:23.677Z,9.18
2018-03-12T05:40:23.639Z,9.10
2018-03-12T05:41:23.603Z,9.19
2018-03-12T05:42:23.626Z,9.21
2018-03-12T05:43:23.526Z,9.21
2018-03-12T05:44:23.486Z,9.16
2018-03-12T05:45:23.455Z,9.06
2018-03-12T05:46:23.417Z,9.19
2018-03-12T05:47:23.378Z,9.16
2018-03-12T05:48:23.350Z,9.14
2018-03-12T05:49:23.297Z,9.16
2018-03-12T05:50:23.263Z,9.14
2018-03-12T05:51:23.231Z,9.16
2018-03-12T05:52:23.188Z,9.18
2018-03-12T05:53:23.149Z,9.14
2018-03-12T05:54:23.111Z,9.10
2018-03-12T05:55:23.077Z,9.19
2018-03-12T05:56:23.036Z,9.18
2018-03-12T05:57:23.001Z,9.23
2018-03-12T05:58:22.964Z,9.23
2018-03-12T05:59:22.926Z,9.23
2018-03-12T06:00:22.887Z,9.25
2018-03-12T06:01:22.849Z,9.26
2018-03-12T06:02:22.815Z,9.28
2018-03-12T06:03:22.773Z,9.29
2018-03-12T06:04:22.751Z,9.36
2018-03-12T06:05:22.695Z,9.37
2018-03-12T06:06:22.661Z,9.34
2018-03-12T06:07:22.622Z,9.36
2018-03-12T06:08:22.586Z,9.40
2018-03-12T06:09:22.547Z,9.37
2018-03-12T06:10:22.511Z,9.37
2018-03-12T06:11:22.472Z,9.41
2018-03-12T06:12:22.434Z,9.37
2018-03-12T06:13:22.397Z,9.34
2018-03-12T06:14:22.359Z,9.39
2018-03-12T06:15:22.320Z,9.40
2018-03-12T06:16:22.285Z,9.36
2018-03-12T06:17:22.245Z,9.37
2018-03-12T06:18:22.207Z,9.37
2018-03-12T06:19:22.172Z,9.31
2018-03-12T06:20:22.133Z,9.29
2018-03-12T06:21:22.109Z,9.34
2018-03-12T06:22:22.059Z,9.26
2018-03-12T06:23:22.018Z,9.26
2018-03-12T06:24:21.983Z,9.21
2018-03-12T06:25:21.946Z,9.26
2018-03-12T06:26:21.909Z,9.25
2018-03-12T06:27:21.869Z,9.21
2018-03-12T06:28:21.835Z,9.29
2018-03-12T06:29:21.793Z,9.23
2018-03-12T06:30:21.756Z,9.21
2018-03-12T06:31:21.717Z,9.19
2018-03-12T06:32:21.684Z,9.18
2018-03-12T06:33:21.644Z,9.16
2018-03-12T06:34:21.605Z,9.21
2018-03-12T06:35:21.566Z,9.22
2018-03-12T06:36:21.529Z,9.18
2018-03-12T06:37:21.490Z,9.14
2018-03-12T06:38:21.455Z,9.23
2018-03-12T06:39:21.418Z,9.21
2018-03-12T06:40:21.378Z,9.16
2018-03-12T06:41:21.339Z,9.19
2018-03-12T06:42:21.303Z,9.16
2018-03-12T06:43:21.266Z,9.19
2018-03-12T06:44:21.226Z,9.18
2018-03-12T06:45:21.194Z,9.26
2018-03-12T06:46:21.150Z,9.22
2018-03-12T06:47:21.116Z,9.19
2018-03-12T06:48:21.077Z,9.21
2018-03-12T06:49:21.043Z,9.31
2018-03-12T06:50:21.001Z,9.26
2018-03-12T06:51:20.962Z,9.23
2018-03-12T06:52:20.926Z,9.28
2018-03-12T06:53:20.892Z,9.36
2018-03-12T06:54:20.851Z,9.34
2018-03-12T06:55:20.815Z,9.29
2018-03-12T06:56:20.773Z,9.37
2018-03-12T06:57:20.737Z,9.34
2018-03-12T06:58:20.738Z,9.32
2018-03-12T06:59:20.661Z,9.31
2018-03-12T07:00:20.623Z,9.39
2018-03-12T07:01:20.587Z,9.31
2018-03-12T07:02:20.549Z,9.44
2018-03-12T07:03:20.512Z,9.39
2018-03-12T07:04:20.478Z,9.46
2018-03-12T07:05:20.437Z,9.41
2018-03-12T07:06:20.397Z,9.43
2018-03-12T07:07:20.359Z,9.43
2018-03-12T07:08:20.347Z,9.44
2018-03-12T07:09:20.286Z,9.51
2018-03-12T07:10:20.248Z,9.47
2018-03-12T07:11:20.207Z,9.56
2018-03-12T07:12:20.173Z,9.51
2018-03-12T07:13:20.138Z,9.54
2018-03-12T07:14:20.097Z,9.51
2018-03-12T07:15:20.058Z,9.58
2018-03-12T07:16:20.020Z,9.51
2018-03-12T07:17:20.021Z,9.54
2018-03-12T07:18:19.947Z,9.51
2018-03-12T07:19:19.910Z,9.56
2018-03-12T07:20:19.873Z,9.56
2018-03-12T07:21:19.836Z,9.59
2018-03-12T07:22:19.796Z,9.59
2018-03-12T07:23:19.759Z,9.62
2018-03-12T07:24:19.722Z,9.55
2018-03-12T07:25:19.685Z,9.66
2018-03-12T07:26:19.646Z,9.65
2018-03-12T07:27:19.606Z,9.72
2018-03-12T07:28:19.571Z,9.65
2018-03-12T07:29:19.535Z,9.73
2018-03-12T07:30:19.498Z,9.73
2018-03-12T07:31:19.459Z,9.76
2018-03-12T07:32:19.424Z,9.87
2018-03-12T07:33:19.385Z,9.82
2018-03-12T07:34:19.348Z,9.86
2018-03-12T07:35:19.312Z,9.87
2018-03-12T07:36:19.273Z,9.97
2018-03-12T07:37:19.234Z,9.91
2018-03-12T07:38:19.197Z,10.01
2018-03-12T07:39:19.160Z,9.95
2018-03-12T07:40:19.127Z,9.94
2018-03-12T07:41:19.084Z,9.97
2018-03-12T07:42:19.050Z,10.05
2018-03-12T07:43:19.014Z,9.99
2018-03-12T07:44:18.976Z,10.07
2018-03-12T07:45:18.937Z,10.05
2018-03-12T07:46:18.899Z,10.13
2018-03-12T07:47:18.868Z,10.12
2018-03-12T07:48:18.825Z,10.09
2018-03-12T07:49:18.792Z,10.13
2018-03-12T07:50:18.751Z,10.12
2018-03-12T07:51:18.712Z,10.16
2018-03-12T07:52:18.676Z,10.20
2018-03-12T07:53:18.642Z,10.28
2018-03-12T07:54:18.603Z,10.26
2018-03-12T07:55:18.566Z,10.19
2018-03-12T07:56:18.530Z,10.25
2018-03-12T07:57:18.493Z,10.17
2018-03-12T07:58:18.455Z,10.20
2018-03-12T07:59:18.418Z,10.19
2018-03-12T08:00:18.387Z,10.22
2018-03-12T08:01:18.356Z,10.20
2018-03-12T08:02:18.310Z,10.31
2018-03-12T08:03:18.272Z,10.25
2018-03-12T08:04:18.236Z,10.33
2018-03-12T08:05:18.197Z,10.28
2018-03-12T08:06:18.164Z,10.25
2018-03-12T08:07:18.126Z,10.25
2018-03-12T08:08:18.087Z,10.26
2018-03-12T08:09:18.051Z,10.31
2018-03-12T08:10:18.012Z,10.37
2018-03-12T08:11:17.980Z,10.40
2018-03-12T08:12:17.939Z,10.41
2018-03-12T08:13:17.904Z,10.42
2018-03-12T08:14:17.864Z,10.40
2018-03-12T08:15:17.827Z,10.35
2018-03-12T08:16:17.822Z,10.44
2018-03-12T08:17:17.756Z,10.38
2018-03-12T08:18:17.719Z,10.37
2018-03-12T08:19:17.684Z,10.40
2018-03-12T08:20:17.644Z,10.37
2018-03-12T08:21:17.608Z,10.40
2018-03-12T08:22:17.572Z,10.35
2018-03-12T08:23:17.534Z,10.37
2018-03-12T08:24:17.498Z,10.34
2018-03-12T08:25:17.461Z,10.28
2018-03-12T08:26:17.424Z,10.37
2018-03-12T08:27:17.384Z,10.37
2018-03-12T08:28:17.354Z,10.34
2018-03-12T08:29:17.314Z,10.34
2018-03-12T08:30:17.279Z,10.35
2018-03-12T08:31:17.240Z,10.37
2018-03-12T08:32:17.204Z,10.41
2018-03-12T08:33:17.170Z,10.30
2018-03-12T08:34:17.151Z,10.41
2018-03-12T08:35:17.094Z,10.34
2018-03-12T08:36:17.056Z,10.42
2018-03-12T08:37:17.022Z,10.41
2018-03-12T08:38:16.981Z,10.31
2018-03-12T08:39:16.946Z,10.35
2018-03-12T08:40:16.908Z,10.46
2018-03-12T08:41:16.872Z,10.51
2018-03-12T08:42:16.834Z,10.48
2018-03-12T08:43:16.801Z,10.48
2018-03-12T08:44:16.763Z,10.42
2018-03-12T08:45:16.724Z,10.46
2018-03-12T08:46:16.689Z,10.49
2018-03-12T08:47:16.652Z,10.64
2018-03-12T08:48:16.615Z,10.63
2018-03-12T08:49:16.581Z,10.63
2018-03-12T08:50:16.556Z,10.67
2018-03-12T08:51:16.522Z,10.69
2018-03-12T08:52:16.470Z,10.69
2018-03-12T08:53:16.434Z,10.71
2018-03-12T08:54:16.398Z,10.72
2018-03-12T08:55:16.358Z,10.69
2018-03-12T08:56:16.325Z,10.72
2018-03-12T08:57:16.289Z,10.78
2018-03-12T08:58:16.254Z,10.72
2018-03-12T08:59:16.210Z,10.71
2018-03-12T09:00:16.178Z,10.72
2018-03-12T09:01:16.145Z,10.76
2018-03-12T09:02:16.113Z,10.87
2018-03-12T09:03:16.069Z,10.81
2018-03-12T09:04:16.076Z,10.81
2018-03-12T09:05:15.996Z,10.90
2018-03-12T09:06:15.959Z,10.90
2018-03-12T09:07:15.924Z,10.87
2018-03-12T09:08:15.889Z,10.82
2018-03-12T09:09:15.851Z,10.87
2018-03-12T09:10:15.819Z,10.86
2018-03-12T09:11:15.779Z,10.86
2018-03-12T09:12:15.743Z,10.89
2018-03-12T09:13:15.705Z,10.93
2018-03-12T09:14:15.672Z,10.94
2018-03-12T09:15:15.633Z,10.99
2018-03-12T09:16:15.594Z,11.02
2018-03-12T09:17:15.560Z,10.99
2018-03-12T09:18:22.189Z,11.04
2018-03-12T09:19:15.487Z,11.11
2018-03-12T09:20:15.453Z,11.14
2018-03-12T09:21:15.415Z,11.17
2018-03-12T09:22:15.378Z,11.12
2018-03-12T09:23:15.342Z,11.10
2018-03-12T09:24:15.306Z,11.11
2018-03-12T09:25:15.269Z,11.05
2018-03-12T09:26:15.242Z,11.08
2018-03-12T09:27:15.198Z,11.11
2018-03-12T09:28:15.163Z,11.10
2018-03-12T09:29:15.127Z,11.18
2018-03-12T09:30:15.102Z,11.14
2018-03-12T09:31:15.052Z,11.23
2018-03-12T09:32:15.020Z,11.26
2018-03-12T09:33:15.022Z,11.32
2018-03-12T09:34:14.945Z,11.41
2018-03-12T09:35:14.909Z,11.47
2018-03-12T09:36:14.872Z,11.40
2018-03-12T09:37:14.836Z,11.43
2018-03-12T09:38:14.806Z,11.51
2018-03-12T09:39:14.766Z,11.51
2018-03-12T09:40:14.731Z,11.59
2018-03-12T09:41:14.696Z,11.62
2018-03-12T09:42:14.659Z,11.63
2018-03-12T09:43:14.625Z,11.75
2018-03-12T09:44:14.607Z,11.65
2018-03-12T09:45:14.554Z,11.77
2018-03-12T09:46:14.517Z,11.81
2018-03-12T09:47:14.484Z,11.72
2018-03-12T09:48:14.449Z,12.04
2018-03-12T09:49:14.414Z,12.09
2018-03-12T09:50:14.375Z,12.17
2018-03-12T09:51:14.340Z,12.24
2018-03-12T09:52:14.309Z,12.42
2018-03-12T09:53:14.275Z,12.39
2018-03-12T09:54:14.234Z,12.50
2018-03-12T09:55:14.206Z,12.64
2018-03-12T09:56:14.169Z,12.70
2018-03-12T09:57:14.136Z,12.86
2018-03-12T09:58:14.104Z,12.83
2018-03-12T09:59:14.066Z,12.94
2018-03-12T10:00:14.032Z,13.01
2018-03-12T10:01:14.002Z,13.08
2018-03-12T10:02:13.964Z,13.08
2018-03-12T10:03:13.932Z,13.04
2018-03-12T10:04:13.897Z,13.09
2018-03-12T10:05:13.864Z,13.18
2018-03-12T10:06:13.831Z,13.33
2018-03-12T10:07:13.798Z,13.63
2018-03-12T10:08:13.769Z,13.77
2018-03-12T10:09:13.733Z,14.05
2018-03-12T10:10:13.701Z,14.07
2018-03-12T10:11:13.662Z,14.08
2018-03-12T10:12:13.630Z,13.97
2018-03-12T10:13:13.602Z,14.28
2018-03-12T10:14:13.571Z,14.36
2018-03-12T10:15:13.538Z,14.84
2018-03-12T10:16:13.544Z,15.29
2018-03-12T10:17:13.474Z,16.02
2018-03-12T10:18:13.483Z,16.50
2018-03-12T10:19:13.482Z,17.01
2018-03-12T10:20:13.386Z,17.45
2018-03-12T10:21:13.358Z,17.95
2018-03-12T10:22:13.333Z,18.37
2018-03-12T10:23:13.301Z,18.50
2018-03-12T10:24:13.278Z,18.63
2018-03-12T10:25:13.250Z,18.95
2018-03-12T10:26:13.223Z,19.36
2018-03-12T10:27:13.200Z,19.74
2018-03-12T10:28:13.174Z,20.03
2018-03-12T10:29:13.152Z,20.31
2018-03-12T10:30:13.129Z,20.04
2018-03-12T10:31:13.103Z,19.88
2018-03-12T10:32:13.076Z,19.63
2018-03-12T10:33:13.054Z,19.33
2018-03-12T10:34:13.029Z,19.19
2018-03-12T10:35:13.010Z,18.81
2018-03-12T10:36:12.980Z,18.74
2018-03-12T10:37:12.955Z,18.96
2018-03-12T10:38:12.929Z,19.55
2018-03-12T10:39:12.907Z,20.02
2018-03-12T10:40:12.897Z,20.52
2018-03-12T10:41:12.854Z,20.03
2018-03-12T10:42:12.841Z,19.63
2018-03-12T10:43:12.805Z,18.96
2018-03-12T10:44:12.779Z,18.45
2018-03-12T10:45:12.753Z,18.15
2018-03-12T10:46:12.728Z,17.83
2018-03-12T10:47:12.702Z,17.60
2018-03-12T10:48:12.677Z,17.44
2018-03-12T10:49:12.645Z,17.54
2018-03-12T10:50:12.620Z,17.38
2018-03-12T10:51:12.616Z,17.26
2018-03-12T10:52:12.567Z,17.14
2018-03-12T10:53:12.538Z,17.16
2018-03-12T10:54:12.509Z,17.29
2018-03-12T10:55:12.481Z,17.76
2018-03-12T10:56:12.451Z,18.37
2018-03-12T10:57:12.424Z,18.73
2018-03-12T10:58:12.400Z,18.62
2018-03-12T10:59:12.370Z,18.28
2018-03-12T11:00:12.341Z,18.08
2018-03-12T11:01:12.315Z,17.82
2018-03-12T11:02:12.286Z,17.63
2018-03-12T11:03:12.257Z,17.52
2018-03-12T11:04:12.231Z,17.27
2018-03-12T11:05:12.208Z,16.97
2018-03-12T11:06:12.173Z,16.76
2018-03-12T11:07:12.160Z,16.56
2018-03-12T11:08:12.111Z,16.47
2018-03-12T11:09:12.084Z,16.36
2018-03-12T11:10:12.053Z,16.12
2018-03-12T11:11:12.097Z,16.24
2018-03-12T11:12:11.993Z,16.26
2018-03-12T11:13:11.962Z,16.29
2018-03-12T11:14:11.933Z,16.32
2018-03-12T11:15:11.903Z,16.29
2018-03-12T11:16:11.870Z,16.60
2018-03-12T11:17:11.839Z,16.51
2018-03-12T11:18:11.807Z,16.35
2018-03-12T11:19:11.778Z,16.35
2018-03-12T11:20:11.748Z,16.38
2018-03-12T11:21:11.717Z,16.15
2018-03-12T11:22:11.685Z,15.83
2018-03-12T11:23:11.654Z,15.88
2018-03-12T11:24:11.620Z,15.80
2018-03-12T11:25:11.591Z,15.65
2018-03-12T11:26:11.556Z,15.51
2018-03-12T11:27:11.544Z,15.33
2018-03-12T11:28:11.490Z,15.33
2018-03-12T11:29:11.459Z,15.27
2018-03-12T11:30:11.429Z,15.21
2018-03-12T11:31:11.401Z,15.18
2018-03-12T11:32:11.379Z,15.11
2018-03-12T11:33:11.332Z,15.11
2018-03-12T11:34:11.298Z,15.11
2018-03-12T11:35:11.266Z,15.11
2018-03-12T11:36:11.237Z,15.18
2018-03-12T11:37:11.202Z,15.09
2018-03-12T11:38:11.167Z,15.07
2018-03-12T11:39:11.134Z,15.19
2018-03-12T11:40:11.104Z,15.17
2018-03-12T11:41:11.071Z,15.19
2018-03-12T11:42:11.040Z,15.24
2018-03-12T11:43:11.004Z,15.36
2018-03-12T11:44:10.974Z,15.49
2018-03-12T11:45:10.940Z,16.54
2018-03-12T11:46:10.961Z,17.87
2018-03-12T11:47:10.876Z,19.31
2018-03-12T11:48:10.849Z,20.65
2018-03-12T11:49:10.821Z,21.55
2018-03-12T11:50:10.790Z,22.45
2018-03-12T11:51:10.763Z,22.04
2018-03-12T11:52:10.738Z,21.36
2018-03-12T11:53:10.710Z,20.85
2018-03-12T11:54:10.681Z,20.32
2018-03-12T11:55:10.657Z,19.69
2018-03-12T11:56:10.626Z,19.04
2018-03-12T11:57:10.595Z,18.26
2018-03-12T11:58:10.573Z,17.92
2018-03-12T11:59:10.539Z,17.49
2018-03-12T12:00:10.513Z,17.29
2018-03-12T12:01:10.484Z,17.05
2018-03-12T12:02:10.453Z,16.89
2018-03-12T12:03:11.034Z,16.86
2018-03-12T12:04:10.391Z,16.91
2018-03-12T12:05:10.361Z,17.14
2018-03-12T12:06:10.331Z,17.24
2018-03-12T12:07:10.300Z,17.30
2018-03-12T12:08:10.270Z,17.30
2018-03-12T12:09:10.243Z,17.14
2018-03-12T12:10:10.210Z,17.06
2018-03-12T12:11:10.179Z,16.94
2018-03-12T12:12:10.335Z,16.90
2018-03-12T12:13:10.119Z,16.76
2018-03-12T12:14:10.088Z,16.75
2018-03-12T12:15:10.060Z,16.81
2018-03-12T12:16:10.025Z,16.68
2018-03-12T12:17:09.992Z,16.61
2018-03-12T12:18:09.960Z,16.58
2018-03-12T12:19:09.963Z,16.43
2018-03-12T12:20:09.898Z,16.46
2018-03-12T12:21:09.868Z,16.43
2018-03-12T12:22:09.834Z,16.32
2018-03-12T12:23:09.803Z,16.35
2018-03-12T12:24:09.772Z,16.26
2018-03-12T12:25:09.742Z,16.20
2018-03-12T12:26:09.710Z,16.24
2018-03-12T12:27:09.733Z,16.23
2018-03-12T12:28:09.646Z,16.13
2018-03-12T12:29:09.619Z,15.95
2018-03-12T12:30:09.582Z,15.92
2018-03-12T12:31:09.554Z,15.88
2018-03-12T12:32:09.518Z,15.95
2018-03-12T12:33:09.488Z,15.98
2018-03-12T12:34:09.508Z,15.98
2018-03-12T12:35:09.425Z,16.38
2018-03-12T12:36:09.393Z,17.09
2018-03-12T12:37:09.360Z,17.52
2018-03-12T12:38:09.329Z,17.86
2018-03-12T12:39:09.298Z,18.07
2018-03-12T12:40:09.268Z,18.04
2018-03-12T12:41:09.238Z,18.05
2018-03-12T12:42:09.208Z,18.05
2018-03-12T12:43:09.175Z,17.86
2018-03-12T12:44:09.146Z,17.67
2018-03-12T12:45:09.116Z,17.72
2018-03-12T12:46:09.085Z,17.57
2018-03-12T12:47:09.061Z,17.29
2018-03-12T12:48:09.023Z,16.91
2018-03-12T12:49:08.995Z,16.78
2018-03-12T12:50:08.962Z,16.65
2018-03-12T12:51:09.097Z,16.72
2018-03-12T12:52:08.928Z,16.74
2018-03-12T12:53:08.874Z,16.66
2018-03-12T12:54:08.838Z,16.50
2018-03-12T12:55:09.104Z,16.57
2018-03-12T12:56:08.776Z,16.58
2018-03-12T12:57:08.746Z,16.64
2018-03-12T12:58:08.717Z,16.86
2018-03-12T12:59:08.681Z,16.96
2018-03-12T13:00:08.654Z,17.14
2018-03-12T13:01:08.622Z,17.33
2018-03-12T13:02:08.588Z,17.38
2018-03-12T13:03:08.557Z,17.24
2018-03-12T13:04:08.527Z,17.33
2018-03-12T13:05:08.502Z,17.22
2018-03-12T13:06:08.463Z,17.27
2018-03-12T13:07:08.436Z,17.36